Time;durP1;ratioP1;P1;durP2;ratioP2;P2;SDS_P1;SDS_P2;PMS_P1;PMS_P2;Temp;Humidity;BMP_temperature;BMP_pressure;BME280_temperature;BME280_humidity;BME280_pressure;Samples;Min_cycle;Max_cycle;Signal;HPM_P1;HPM_P2
2021/11/26 00:01:26;;;;;;;6.78;2.20;;;14.20;67.60;;;;;;4188923;28;20046;-72
2021/11/26 00:03:29;;;;;;;8.32;2.90;;;14.30;67.70;;;;;;4178906;28;20106;-71
2021/11/26 00:05:32;;;;;;;10.27;2.55;;;14.20;67.60;;;;;;4190366;28;20112;-72
2021/11/26 00:07:36;;;;;;;7.88;2.72;;;14.20;67.60;;;;;;4182020;28;20045;-71
2021/11/26 00:09:39;;;;;;;6.72;2.00;;;14.30;67.60;;;;;;4186165;28;20056;-72
2021/11/26 00:11:42;;;;;;;10.70;2.70;;;14.20;67.60;;;;;;4188647;28;20107;-72
2021/11/26 00:13:53;;;;;;;9.60;2.80;;;14.20;67.50;;;;;;4178587;28;20064;-71
2021/11/26 00:16:07;;;;;;;7.10;2.60;;;14.20;67.50;;;;;;4190172;28;20056;-72
2021/11/26 00:18:18;;;;;;;6.72;2.58;;;14.20;67.50;;;;;;4185771;28;20073;-72
2021/11/26 00:20:21;;;;;;;9.43;3.25;;;14.20;67.50;;;;;;4175118;28;20053;-72
2021/11/26 00:22:24;;;;;;;10.63;3.05;;;14.20;67.50;;;;;;4175929;28;20057;-72
2021/11/26 00:24:27;;;;;;;6.45;2.30;;;14.20;67.50;;;;;;4180854;28;20053;-72
2021/11/26 00:26:30;;;;;;;6.80;2.60;;;14.20;67.40;;;;;;4190986;28;20060;-73
2021/11/26 00:28:33;;;;;;;7.80;2.55;;;14.20;67.40;;;;;;4187687;28;20073;-71
2021/11/26 00:30:38;;;;;;;8.73;2.50;;;14.20;67.40;;;;;;4177729;28;20069;-73
2021/11/26 00:32:41;;;;;;;9.75;2.90;;;14.20;67.40;;;;;;4176687;28;20116;-72
2021/11/26 00:34:44;;;;;;;11.07;3.00;;;14.20;67.40;;;;;;4185627;28;20295;-72
2021/11/26 00:36:47;;;;;;;9.27;2.60;;;14.20;67.40;;;;;;4174499;28;20053;-73
2021/11/26 00:38:50;;;;;;;7.88;2.45;;;14.20;67.40;;;;;;4183529;28;20076;-72
2021/11/26 00:40:53;;;;;;;10.80;2.90;;;14.20;67.40;;;;;;4175855;28;20091;-72
2021/11/26 00:42:56;;;;;;;7.63;2.80;;;14.20;67.40;;;;;;4174637;28;20361;-71
2021/11/26 00:44:59;;;;;;;10.20;2.63;;;14.20;67.40;;;;;;4178776;28;20049;-72
2021/11/26 00:47:04;;;;;;;6.65;2.70;;;14.20;67.30;;;;;;4189681;28;20053;-72
2021/11/26 00:49:07;;;;;;;11.13;3.10;;;14.20;67.30;;;;;;4184251;28;20053;-72
2021/11/26 00:51:10;;;;;;;8.30;2.83;;;14.20;67.30;;;;;;4175686;28;20060;-72
2021/11/26 00:53:13;;;;;;;8.45;2.50;;;14.20;67.30;;;;;;4174032;28;20049;-71
2021/11/26 00:55:17;;;;;;;8.30;2.88;;;14.20;67.30;;;;;;4184108;28;20099;-71
2021/11/26 00:57:20;;;;;;;10.80;2.97;;;14.20;67.30;;;;;;4173154;28;20073;-72
2021/11/26 00:59:23;;;;;;;8.32;2.80;;;14.20;67.30;;;;;;4181397;28;20053;-71
2021/11/26 01:01:26;;;;;;;8.90;2.60;;;14.20;67.30;;;;;;4176399;28;20053;-72
2021/11/26 01:03:31;;;;;;;7.65;2.63;;;14.20;67.20;;;;;;4173878;28;20094;-72
2021/11/26 01:05:34;;;;;;;6.10;2.50;;;14.20;67.20;;;;;;4183864;28;20049;-72
2021/11/26 01:07:38;;;;;;;8.82;2.90;;;14.20;67.20;;;;;;4172795;28;20289;-72
2021/11/26 01:09:41;;;;;;;8.85;2.22;;;14.20;67.20;;;;;;4181014;28;20071;-72
2021/11/26 01:11:44;;;;;;;8.65;2.72;;;14.20;67.10;;;;;;4176567;28;20219;-72
2021/11/26 01:13:47;;;;;;;7.20;2.55;;;14.20;67.10;;;;;;4173462;28;20345;-71
2021/11/26 01:15:51;;;;;;;9.30;2.83;;;14.20;67.10;;;;;;4183506;28;20348;-72
2021/11/26 01:17:55;;;;;;;9.98;2.45;;;14.10;67.00;;;;;;4172768;28;20072;-72
2021/11/26 01:19:59;;;;;;;10.27;3.03;;;14.10;67.00;;;;;;4180130;28;20072;-72
2021/11/26 01:22:03;;;;;;;9.15;3.13;;;14.10;67.00;;;;;;4176566;28;20388;-72
2021/11/26 01:24:06;;;;;;;11.07;2.97;;;14.10;67.00;;;;;;4173791;28;20076;-71
2021/11/26 01:26:09;;;;;;;10.68;3.45;;;14.20;67.00;;;;;;4183492;28;20353;-71
2021/11/26 01:28:12;;;;;;;7.63;2.92;;;14.10;67.00;;;;;;4172395;28;20050;-72
2021/11/26 01:30:36;;;;;;;9.57;3.72;;;14.10;66.90;;;;;;4179653;28;20409;-72
2021/11/26 01:32:40;;;;;;;8.35;2.78;;;14.20;67.00;;;;;;4173962;28;20088;-71
2021/11/26 01:34:43;;;;;;;9.15;2.70;;;14.20;67.00;;;;;;4173737;28;20056;-72
2021/11/26 01:36:50;;;;;;;8.63;2.50;;;14.10;67.00;;;;;;4182713;28;20379;-72
2021/11/26 01:38:54;;;;;;;8.32;2.55;;;14.10;67.00;;;;;;4172091;28;20285;-71
2021/11/26 01:40:57;;;;;;;9.25;2.75;;;14.10;67.00;;;;;;4182244;28;20041;-71
2021/11/26 01:43:00;;;;;;;9.05;3.17;;;14.10;67.00;;;;;;4174082;28;20302;-72
2021/11/26 01:45:05;;;;;;;9.68;2.95;;;14.10;67.00;;;;;;4173223;28;20245;-73
2021/11/26 01:47:11;;;;;;;7.93;2.70;;;14.10;67.00;;;;;;4183501;28;20068;-73
2021/11/26 01:49:16;;;;;;;8.50;2.90;;;14.10;66.90;;;;;;4172925;28;20050;-72
2021/11/26 01:51:19;;;;;;;9.75;2.90;;;14.10;66.90;;;;;;4183992;28;20100;-71
2021/11/26 01:53:23;;;;;;;10.48;3.20;;;14.10;66.90;;;;;;4176588;28;20058;-72
2021/11/26 01:55:27;;;;;;;10.50;2.95;;;14.10;66.90;;;;;;4175791;28;20057;-72
2021/11/26 01:57:30;;;;;;;9.75;3.60;;;14.10;66.90;;;;;;4183083;28;20065;-72
2021/11/26 01:59:33;;;;;;;7.55;2.85;;;14.10;66.90;;;;;;4172160;28;20083;-72
2021/11/26 02:01:36;;;;;;;9.43;2.78;;;14.10;66.90;;;;;;4181343;28;20148;-72
2021/11/26 02:03:39;;;;;;;8.88;2.42;;;14.10;66.90;;;;;;4173961;28;20064;-72
2021/11/26 02:05:42;;;;;;;6.78;2.58;;;14.10;66.90;;;;;;4172026;28;20076;-72
2021/11/26 02:07:46;;;;;;;9.27;2.90;;;14.10;66.90;;;;;;4177437;28;20068;-73
2021/11/26 02:09:50;;;;;;;7.43;2.60;;;14.10;66.90;;;;;;4188471;28;20053;-72
2021/11/26 02:11:53;;;;;;;8.88;3.13;;;14.10;66.90;;;;;;4184067;28;20178;-71
2021/11/26 02:13:56;;;;;;;8.80;2.88;;;14.10;66.90;;;;;;4174353;28;20080;-71
2021/11/26 02:16:00;;;;;;;8.57;2.83;;;14.10;66.90;;;;;;4172970;28;20107;-72
2021/11/26 02:18:03;;;;;;;10.80;2.90;;;14.10;66.90;;;;;;4182951;28;20284;-71
2021/11/26 02:20:16;;;;;;;9.13;3.28;;;14.10;66.80;;;;;;4170532;28;20558;-72
2021/11/26 02:22:19;;;;;;;9.65;2.50;;;14.10;66.90;;;;;;4181805;28;20221;-72
2021/11/26 02:24:22;;;;;;;7.95;2.40;;;14.10;66.80;;;;;;4173469;28;20053;-72
2021/11/26 02:26:25;;;;;;;9.38;2.78;;;14.10;66.90;;;;;;4172775;28;20068;-71
2021/11/26 02:28:28;;;;;;;9.32;2.78;;;14.10;66.80;;;;;;4182497;28;20113;-71
2021/11/26 02:30:32;;;;;;;9.90;2.78;;;14.10;66.80;;;;;;4171815;28;20054;-72
2021/11/26 02:32:35;;;;;;;6.72;2.60;;;14.10;66.80;;;;;;4180864;28;20280;-72
2021/11/26 02:34:38;;;;;;;9.50;3.53;;;14.10;66.80;;;;;;4174258;28;20126;-73
2021/11/26 02:36:43;;;;;;;9.48;2.63;;;14.10;66.80;;;;;;4172811;28;20056;-72
2021/11/26 02:38:46;;;;;;;7.85;2.75;;;14.10;66.80;;;;;;4177889;28;20049;-74
2021/11/26 02:40:50;;;;;;;8.15;2.78;;;14.10;66.80;;;;;;4190628;28;20060;-72
2021/11/26 02:42:56;;;;;;;8.90;3.10;;;14.10;66.80;;;;;;4180436;28;20049;-72
2021/11/26 02:44:59;;;;;;;8.35;2.78;;;14.10;66.80;;;;;;4185861;28;20076;-72
2021/11/26 02:47:02;;;;;;;10.57;3.40;;;14.10;66.80;;;;;;4186635;28;20049;-72
2021/11/26 02:49:06;;;;;;;9.80;2.63;;;14.10;66.80;;;;;;4176769;28;20053;-72
2021/11/26 02:51:09;;;;;;;10.18;2.90;;;14.10;66.80;;;;;;4188138;28;20344;-71
2021/11/26 02:53:13;;;;;;;8.05;2.55;;;14.10;66.80;;;;;;4178950;28;20062;-72
2021/11/26 02:55:19;;;;;;;8.10;2.83;;;14.10;66.80;;;;;;4185015;28;20064;-73
2021/11/26 02:57:22;;;;;;;9.50;2.88;;;14.10;66.80;;;;;;4186678;28;20076;-71
2021/11/26 02:59:25;;;;;;;12.13;3.00;;;14.10;66.80;;;;;;4176908;28;20246;-72
2021/11/26 03:01:28;;;;;;;13.00;3.30;;;14.10;66.80;;;;;;4188087;28;20103;-72
2021/11/26 03:03:31;;;;;;;7.55;2.90;;;14.00;66.70;;;;;;4178683;28;20077;-72
2021/11/26 03:05:35;;;;;;;9.45;3.10;;;14.10;66.70;;;;;;4184603;28;20092;-72
2021/11/26 03:07:39;;;;;;;7.47;2.95;;;14.10;66.70;;;;;;4186406;28;20064;-72
2021/11/26 03:09:43;;;;;;;7.30;2.63;;;14.10;66.80;;;;;;4176563;28;20349;-72
2021/11/26 03:11:46;;;;;;;12.23;3.00;;;14.00;66.70;;;;;;4188289;28;20064;-73
2021/11/26 03:13:49;;;;;;;10.27;3.42;;;14.00;66.70;;;;;;4181037;28;20115;-72
2021/11/26 03:15:53;;;;;;;6.55;2.63;;;14.10;66.80;;;;;;4187220;28;20254;-72
2021/11/26 03:17:57;;;;;;;10.25;2.95;;;14.00;66.70;;;;;;4189867;28;20049;-72
2021/11/26 03:20:00;;;;;;;7.45;2.63;;;14.10;66.80;;;;;;4176023;28;20294;-71
2021/11/26 03:22:03;;;;;;;8.02;3.03;;;14.10;66.80;;;;;;4175928;28;20073;-71
2021/11/26 03:24:07;;;;;;;8.65;2.83;;;14.00;67.30;;;;;;4182211;28;20120;-74
2021/11/26 03:26:11;;;;;;;10.75;2.80;;;14.00;66.70;;;;;;4179922;28;20061;-72
2021/11/26 03:28:15;;;;;;;6.30;2.45;;;14.00;66.70;;;;;;4176611;28;20045;-72
2021/11/26 03:30:20;;;;;;;6.50;2.83;;;14.00;66.70;;;;;;4186023;28;20334;-72
2021/11/26 03:32:24;;;;;;;9.27;3.30;;;14.00;66.70;;;;;;4174532;28;20053;-72
2021/11/26 03:34:27;;;;;;;6.95;2.85;;;14.00;66.70;;;;;;4181932;28;20061;-72
2021/11/26 03:36:30;;;;;;;9.43;3.00;;;14.00;66.70;;;;;;4177137;28;20060;-72
2021/11/26 03:38:33;;;;;;;8.35;3.15;;;14.00;66.60;;;;;;4175179;28;20056;-71
2021/11/26 03:40:36;;;;;;;8.15;2.95;;;14.00;66.60;;;;;;4185302;28;20076;-72
2021/11/26 03:42:41;;;;;;;7.40;2.33;;;14.00;66.60;;;;;;4174186;28;20064;-72
2021/11/26 03:44:44;;;;;;;9.18;3.03;;;14.00;66.60;;;;;;4181365;28;20049;-72
2021/11/26 03:46:47;;;;;;;8.77;2.60;;;14.00;66.60;;;;;;4179010;28;20057;-71
2021/11/26 03:48:50;;;;;;;8.38;2.55;;;14.00;66.70;;;;;;4175258;28;20258;-72
2021/11/26 03:50:53;;;;;;;6.80;2.60;;;14.00;66.60;;;;;;4185053;28;20080;-72
2021/11/26 03:52:56;;;;;;;6.80;2.72;;;14.00;66.60;;;;;;4174122;28;20062;-72
2021/11/26 03:55:00;;;;;;;10.43;3.10;;;14.00;66.60;;;;;;4180084;28;20056;-72
2021/11/26 03:57:03;;;;;;;9.73;2.83;;;14.00;66.60;;;;;;4179597;28;20053;-72
2021/11/26 03:59:08;;;;;;;10.63;2.90;;;14.00;66.60;;;;;;4175176;28;20060;-72
2021/11/26 04:01:11;;;;;;;7.40;2.50;;;14.00;66.60;;;;;;4187699;28;20245;-72
2021/11/26 04:03:14;;;;;;;7.63;3.20;;;14.00;66.60;;;;;;4173855;28;20068;-72
2021/11/26 04:05:17;;;;;;;8.70;2.58;;;14.00;66.60;;;;;;4179727;28;20345;-72
2021/11/26 04:07:20;;;;;;;8.38;2.60;;;14.00;66.60;;;;;;4179598;28;20080;-72
2021/11/26 04:09:23;;;;;;;6.55;2.22;;;14.00;66.60;;;;;;4174627;28;20061;-71
2021/11/26 04:11:26;;;;;;;7.57;2.42;;;14.00;66.60;;;;;;4186724;28;20091;-72
2021/11/26 04:13:29;;;;;;;10.75;2.92;;;14.00;66.60;;;;;;4190124;28;20068;-72
2021/11/26 04:15:37;;;;;;;7.80;2.90;;;14.00;66.60;;;;;;4184112;28;20073;-72
2021/11/26 04:17:42;;;;;;;9.38;3.17;;;14.00;66.60;;;;;;4184194;28;20076;-71
2021/11/26 04:19:45;;;;;;;;;;;14.00;66.60;;;;;;4187874;28;20073;-71
2021/11/26 04:21:48;;;;;;;10.57;2.88;;;14.00;66.60;;;;;;4179077;28;19917;-72
2021/11/26 04:23:51;;;;;;;10.45;3.58;;;13.90;66.70;;;;;;4189226;28;20299;-72
2021/11/26 04:25:55;;;;;;;8.60;3.10;;;14.00;66.60;;;;;;4184196;28;20056;-71
2021/11/26 04:27:59;;;;;;;9.40;3.15;;;14.00;66.60;;;;;;4183758;28;20333;-72
2021/11/26 04:30:02;;;;;;;8.13;2.83;;;14.00;66.60;;;;;;4189124;28;20053;-70
2021/11/26 04:32:07;;;;;;;7.88;3.03;;;14.00;66.60;;;;;;4178303;28;20069;-72
2021/11/26 04:34:11;;;;;;;6.45;2.60;;;13.90;66.60;;;;;;4189776;28;20052;-71
2021/11/26 04:36:14;;;;;;;7.40;2.60;;;14.00;66.70;;;;;;4184036;28;20054;-72
2021/11/26 04:38:18;;;;;;;7.97;2.70;;;14.00;66.60;;;;;;4183165;28;20053;-72
2021/11/26 04:40:21;;;;;;;8.43;2.80;;;14.00;66.70;;;;;;4189020;28;20053;-72
2021/11/26 04:42:24;;;;;;;7.85;3.08;;;13.90;66.60;;;;;;4177891;28;20054;-71
2021/11/26 04:44:27;;;;;;;8.85;3.15;;;13.90;66.60;;;;;;4189730;28;20057;-72
2021/11/26 04:46:30;;;;;;;9.15;2.97;;;13.90;66.60;;;;;;4184606;28;20080;-72
2021/11/26 04:48:34;;;;;;;11.93;2.97;;;13.90;66.60;;;;;;4182346;28;20325;-72
2021/11/26 04:50:37;;;;;;;9.80;2.60;;;13.90;66.60;;;;;;4189704;28;20068;-72
2021/11/26 04:52:41;;;;;;;9.60;3.08;;;14.00;66.60;;;;;;4188101;28;20072;-72
2021/11/26 04:54:44;;;;;;;7.93;2.88;;;13.90;66.60;;;;;;4172784;28;20068;-72
2021/11/26 04:56:47;;;;;;;7.30;3.08;;;13.90;66.60;;;;;;4178220;28;20276;-73
2021/11/26 04:58:50;;;;;;;10.73;3.85;;;14.00;66.60;;;;;;4183124;28;20057;-73
2021/11/26 05:00:53;;;;;;;8.93;2.85;;;13.90;66.60;;;;;;4173835;28;20057;-71
2021/11/26 05:02:57;;;;;;;7.28;2.80;;;13.90;66.50;;;;;;4184931;28;20286;-72
2021/11/26 05:05:01;;;;;;;6.97;2.90;;;13.90;66.50;;;;;;4172955;28;20066;-72
2021/11/26 05:07:04;;;;;;;6.72;3.13;;;14.00;66.60;;;;;;4176626;28;20259;-72
2021/11/26 05:09:09;;;;;;;6.93;2.75;;;13.90;66.50;;;;;;4180958;28;20112;-72
2021/11/26 05:11:12;;;;;;;9.20;3.45;;;13.90;66.60;;;;;;4172723;28;20368;-71
2021/11/26 05:13:15;;;;;;;7.68;2.78;;;13.90;66.60;;;;;;4184764;28;20406;-71
2021/11/26 05:15:24;;;;;;;8.90;3.10;;;13.90;66.50;;;;;;4172734;28;20107;-72
2021/11/26 05:17:27;;;;;;;8.25;3.15;;;13.90;66.50;;;;;;4176646;28;20290;-72
2021/11/26 05:19:30;;;;;;;6.82;2.92;;;13.90;66.50;;;;;;4180410;28;20064;-72
2021/11/26 05:21:35;;;;;;;5.75;2.78;;;13.90;66.50;;;;;;4171504;28;20053;-72
2021/11/26 05:23:38;;;;;;;11.23;3.65;;;13.90;66.50;;;;;;4177382;28;20053;-74
2021/11/26 05:25:41;;;;;;;7.63;3.25;;;13.90;66.50;;;;;;4189054;28;20072;-72
2021/11/26 05:27:44;;;;;;;8.43;3.20;;;13.90;66.50;;;;;;4187409;28;20049;-72
2021/11/26 05:29:47;;;;;;;9.38;2.88;;;13.90;66.60;;;;;;4180958;28;20049;-72
2021/11/26 05:31:50;;;;;;;8.95;2.90;;;13.90;66.50;;;;;;4172502;28;20060;-72
2021/11/26 05:33:54;;;;;;;8.10;3.20;;;13.90;66.50;;;;;;4183717;28;20052;-73
2021/11/26 05:35:57;;;;;;;8.43;3.08;;;13.90;66.50;;;;;;4171862;28;20068;-72
2021/11/26 05:38:03;;;;;;;8.27;3.00;;;13.90;66.60;;;;;;4175127;28;20458;-72
2021/11/26 05:40:08;;;;;;;9.38;3.08;;;13.90;66.50;;;;;;4180856;28;20053;-71
2021/11/26 05:42:11;;;;;;;7.72;3.10;;;13.90;66.50;;;;;;4172271;28;20245;-72
2021/11/26 05:44:14;;;;;;;8.20;3.15;;;13.90;66.50;;;;;;4183684;28;20083;-72
2021/11/26 05:46:17;;;;;;;6.63;2.70;;;13.90;66.50;;;;;;4172425;28;20057;-72
2021/11/26 05:48:21;;;;;;;7.88;3.00;;;13.90;66.50;;;;;;4175125;28;20062;-73
2021/11/26 05:50:24;;;;;;;12.40;3.28;;;13.90;66.50;;;;;;4181007;28;20247;-72
2021/11/26 05:52:27;;;;;;;8.38;3.42;;;13.90;66.50;;;;;;4172122;28;20465;-71
2021/11/26 05:54:32;;;;;;;7.32;3.40;;;13.90;66.50;;;;;;4183129;28;20366;-72
2021/11/26 05:56:35;;;;;;;7.10;3.13;;;13.90;66.60;;;;;;4172667;28;20064;-72
2021/11/26 05:58:38;;;;;;;7.57;3.13;;;13.90;66.50;;;;;;4174368;28;20049;-72
2021/11/26 06:00:41;;;;;;;6.43;2.92;;;13.90;66.60;;;;;;4181253;28;20092;-72
2021/11/26 06:02:45;;;;;;;9.70;3.20;;;13.90;66.50;;;;;;4171910;28;20060;-72
2021/11/26 06:04:48;;;;;;;6.22;2.85;;;13.90;66.50;;;;;;4182550;28;20390;-72
2021/11/26 06:06:51;;;;;;;10.68;3.50;;;13.90;66.60;;;;;;4173001;28;20253;-72
2021/11/26 06:08:54;;;;;;;7.78;2.90;;;13.90;66.50;;;;;;4173538;28;20049;-72
2021/11/26 06:10:59;;;;;;;8.48;2.45;;;13.90;66.50;;;;;;4182171;28;20050;-72
2021/11/26 06:13:02;;;;;;;7.68;3.00;;;13.90;66.50;;;;;;4171512;28;20053;-71
2021/11/26 06:15:07;;;;;;;8.82;2.88;;;13.90;66.60;;;;;;4181658;28;20072;-71
2021/11/26 06:17:10;;;;;;;7.38;2.90;;;13.90;66.60;;;;;;4173388;28;20072;-71
2021/11/26 06:19:14;;;;;;;10.73;4.13;;;13.90;66.60;;;;;;4173542;28;20072;-72
2021/11/26 06:21:17;;;;;;;8.38;3.00;;;13.90;66.50;;;;;;4182345;28;20080;-72
2021/11/26 06:23:20;;;;;;;8.35;3.42;;;13.90;66.60;;;;;;4171855;28;20333;-71
2021/11/26 06:25:23;;;;;;;11.13;3.08;;;13.90;66.60;;;;;;4181535;28;20059;-71
2021/11/26 06:27:28;;;;;;;6.10;2.70;;;13.90;66.60;;;;;;4173871;28;20069;-71
2021/11/26 06:29:31;;;;;;;7.22;2.88;;;13.90;66.50;;;;;;4171898;28;20056;-72
2021/11/26 06:31:34;;;;;;;9.68;3.30;;;13.90;66.50;;;;;;4182327;28;20069;-72
2021/11/26 06:33:37;;;;;;;6.45;2.72;;;13.90;66.50;;;;;;4171802;28;20057;-73
2021/11/26 06:35:40;;;;;;;7.75;3.50;;;13.90;66.50;;;;;;4180750;28;20064;-72
2021/11/26 06:37:43;;;;;;;9.38;3.10;;;13.90;66.50;;;;;;4174478;28;20053;-72
2021/11/26 06:39:46;;;;;;;10.27;3.60;;;13.90;66.50;;;;;;4172864;28;20045;-72
2021/11/26 06:41:50;;;;;;;8.15;3.13;;;13.90;66.50;;;;;;4182901;28;20049;-73
2021/11/26 06:43:54;;;;;;;7.32;2.70;;;13.80;66.50;;;;;;4171797;28;20171;-72
2021/11/26 06:45:57;;;;;;;8.98;3.22;;;13.90;66.50;;;;;;4180321;28;20293;-72
2021/11/26 06:48:00;;;;;;;7.65;2.88;;;13.90;66.50;;;;;;4176949;28;20060;-73
2021/11/26 06:50:06;;;;;;;7.70;2.78;;;13.90;66.50;;;;;;4176138;28;20049;-71
2021/11/26 06:52:09;;;;;;;8.00;2.92;;;13.90;66.50;;;;;;4186100;28;20053;-71
2021/11/26 06:54:12;;;;;;;8.00;2.70;;;13.90;66.50;;;;;;4175034;28;20053;-72
2021/11/26 06:56:15;;;;;;;6.53;2.60;;;13.80;66.40;;;;;;4183205;28;20112;-72
2021/11/26 06:58:18;;;;;;;8.90;3.38;;;13.90;66.40;;;;;;4178058;28;20342;-72
2021/11/26 07:00:22;;;;;;;9.63;3.38;;;13.90;66.40;;;;;;4175765;28;20056;-73
2021/11/26 07:02:25;;;;;;;8.98;3.35;;;13.90;66.50;;;;;;4185863;28;20072;-72
2021/11/26 07:04:29;;;;;;;7.57;2.92;;;13.80;66.40;;;;;;4174618;28;20065;-72
2021/11/26 07:06:33;;;;;;;11.18;2.90;;;13.90;66.40;;;;;;4182327;28;20395;-74
2021/11/26 07:08:36;;;;;;;7.07;3.27;;;13.90;66.40;;;;;;4178652;28;20061;-71
2021/11/26 07:10:39;;;;;;;7.25;3.08;;;13.80;66.40;;;;;;4175956;28;20497;-72
2021/11/26 07:12:42;;;;;;;8.20;2.85;;;13.80;66.40;;;;;;4185578;28;20049;-72
2021/11/26 07:14:46;;;;;;;7.38;3.13;;;13.80;66.40;;;;;;4174484;28;20053;-72
2021/11/26 07:16:50;;;;;;;8.73;3.00;;;13.80;66.30;;;;;;4180005;28;20184;-72
2021/11/26 07:18:53;;;;;;;4.95;2.15;;;13.80;66.30;;;;;;4188919;28;20053;-72
2021/11/26 07:20:57;;;;;;;7.22;3.13;;;13.80;66.30;;;;;;4189499;28;20076;-71
2021/11/26 07:23:00;;;;;;;9.18;3.08;;;13.80;66.30;;;;;;4179968;28;20087;-72
2021/11/26 07:25:04;;;;;;;9.32;2.95;;;13.90;66.30;;;;;;4191101;28;20103;-72
2021/11/26 07:27:07;;;;;;;8.47;2.90;;;13.80;66.40;;;;;;4183944;28;20076;-72
2021/11/26 07:29:10;;;;;;;10.88;3.28;;;13.80;66.30;;;;;;4185981;28;20076;-72
2021/11/26 07:31:14;;;;;;;8.82;2.75;;;13.80;66.30;;;;;;4189378;28;20060;-72
2021/11/26 07:33:18;;;;;;;7.00;2.95;;;13.90;66.30;;;;;;4179653;28;20146;-72
2021/11/26 07:35:21;;;;;;;8.15;2.97;;;13.90;66.40;;;;;;4190863;28;20333;-72
2021/11/26 07:37:25;;;;;;;9.20;3.45;;;13.80;66.30;;;;;;4183913;28;20054;-72
2021/11/26 07:39:33;;;;;;;10.07;3.30;;;13.80;66.30;;;;;;4185304;28;20052;-72
2021/11/26 07:41:36;;;;;;;7.57;2.92;;;13.80;66.30;;;;;;4189047;28;20058;-72
2021/11/26 07:43:40;;;;;;;11.02;3.75;;;13.80;66.30;;;;;;4179597;28;20049;-71
2021/11/26 07:45:43;;;;;;;9.57;3.03;;;13.80;66.20;;;;;;4190702;28;20103;-71
2021/11/26 07:47:46;;;;;;;9.98;3.40;;;13.80;66.20;;;;;;4183507;28;20057;-71
2021/11/26 07:49:52;;;;;;;7.47;2.95;;;13.80;66.30;;;;;;4184176;28;20413;-71
2021/11/26 07:51:57;;;;;;;7.30;3.28;;;13.80;66.20;;;;;;4188907;28;20053;-72
2021/11/26 07:54:00;;;;;;;9.82;3.45;;;13.80;66.30;;;;;;4179106;28;20360;-72
2021/11/26 07:56:04;;;;;;;9.85;2.95;;;13.80;66.20;;;;;;4190423;28;20059;-72
2021/11/26 07:58:07;;;;;;;11.35;3.10;;;13.80;66.20;;;;;;4183406;28;20046;-72
2021/11/26 08:00:12;;;;;;;9.55;3.00;;;13.80;66.10;;;;;;4184413;28;20056;-71
2021/11/26 08:02:15;;;;;;;;;;;13.80;66.20;;;;;;4189537;28;20064;-72
2021/11/26 08:04:18;;;;;;;9.43;3.08;;;13.80;66.10;;;;;;4178828;28;19940;-71
2021/11/26 08:06:23;;;;;;;7.90;3.00;;;13.80;66.20;;;;;;4190523;28;20064;-72
2021/11/26 08:08:26;;;;;;;9.50;3.00;;;13.80;66.10;;;;;;4183640;28;20045;-72
2021/11/26 08:10:29;;;;;;;10.30;3.40;;;13.80;66.10;;;;;;4183661;28;20072;-72
2021/11/26 08:12:32;;;;;;;10.85;3.00;;;13.80;66.10;;;;;;4188637;28;20053;-72
2021/11/26 08:14:35;;;;;;;8.80;2.90;;;13.80;66.10;;;;;;4177637;28;20292;-71
2021/11/26 08:16:38;;;;;;;7.80;3.20;;;13.80;66.10;;;;;;4190429;28;20057;-71
2021/11/26 08:18:42;;;;;;;7.35;2.70;;;13.80;66.10;;;;;;4183961;28;20292;-71
2021/11/26 08:20:45;;;;;;;6.20;2.97;;;13.80;66.10;;;;;;4184466;28;20072;-72
2021/11/26 08:22:50;;;;;;;9.57;2.88;;;13.80;66.10;;;;;;4190006;28;20348;-72
2021/11/26 08:24:53;;;;;;;10.50;2.78;;;13.80;66.10;;;;;;4187182;28;20060;-72
2021/11/26 08:26:56;;;;;;;7.32;2.88;;;13.70;66.30;;;;;;4190740;28;20057;-72
2021/11/26 08:29:04;;;;;;;8.93;2.95;;;13.80;66.20;;;;;;4184791;28;20072;-72
2021/11/26 08:31:07;;;;;;;6.88;3.00;;;13.80;66.00;;;;;;4183600;28;20072;-72
2021/11/26 08:33:11;;;;;;;9.57;2.55;;;13.80;66.00;;;;;;4189820;28;20056;-71
2021/11/26 08:35:15;;;;;;;8.00;2.90;;;13.80;66.10;;;;;;4186678;28;20060;-71
2021/11/26 08:37:18;;;;;;;12.13;3.10;;;13.80;66.10;;;;;;4190316;28;20065;-72
2021/11/26 08:39:23;;;;;;;9.32;2.88;;;13.80;66.40;;;;;;4184342;28;20050;-72
2021/11/26 08:41:26;;;;;;;9.20;2.92;;;13.90;66.50;;;;;;4183787;28;20052;-72
2021/11/26 08:43:29;;;;;;;10.00;3.40;;;14.00;66.20;;;;;;4189109;28;20072;-73
2021/11/26 08:45:33;;;;;;;7.15;2.72;;;14.10;66.00;;;;;;4178625;28;20072;-72
2021/11/26 08:47:37;;;;;;;8.45;3.28;;;14.20;65.60;;;;;;4188479;28;20060;-72
2021/11/26 08:49:40;;;;;;;8.48;3.03;;;14.30;65.40;;;;;;4183974;28;20072;-72
2021/11/26 08:51:45;;;;;;;8.18;3.00;;;14.30;65.20;;;;;;4189592;28;20064;-71
2021/11/26 08:53:48;;;;;;;10.90;3.10;;;14.40;65.30;;;;;;4189226;28;20103;-71
2021/11/26 08:55:54;;;;;;;9.15;3.55;;;14.40;65.10;;;;;;4178631;28;20072;-71
2021/11/26 08:57:58;;;;;;;12.40;3.20;;;14.50;64.80;;;;;;4189643;28;20357;-71
2021/11/26 09:00:02;;;;;;;16.73;3.13;;;14.60;64.70;;;;;;4187170;28;20049;-72
2021/11/26 09:02:05;;;;;;;9.85;3.20;;;14.60;64.70;;;;;;4188372;28;20482;-72
2021/11/26 09:04:11;;;;;;;10.73;2.80;;;14.70;64.50;;;;;;4188930;28;20067;-74
2021/11/26 09:06:15;;;;;;;10.05;3.00;;;14.70;64.50;;;;;;4185432;28;20053;-71
2021/11/26 09:08:18;;;;;;;9.43;3.58;;;14.80;64.70;;;;;;4186436;28;20079;-71
2021/11/26 09:10:21;;;;;;;10.80;3.20;;;14.80;64.40;;;;;;4187861;28;20081;-71
2021/11/26 09:12:30;;;;;;;15.05;3.40;;;14.80;65.00;;;;;;4187538;28;20076;-71
2021/11/26 09:14:36;;;;;;;13.73;3.45;;;14.80;65.50;;;;;;4178511;28;20068;-70
2021/11/26 09:16:42;;;;;;;19.15;2.92;;;14.80;65.00;;;;;;4179309;28;20098;-70
2021/11/26 09:18:45;;;;;;;13.23;3.45;;;14.90;64.90;;;;;;4188673;28;20061;-72
2021/11/26 09:20:50;;;;;;;17.42;4.13;;;14.90;64.50;;;;;;4184277;28;20334;-70
2021/11/26 09:22:56;;;;;;;11.63;3.95;;;15.00;64.40;;;;;;4183513;28;20087;-70
2021/11/26 09:24:59;;;;;;;13.57;4.53;;;15.00;64.00;;;;;;4185186;28;20049;-70
2021/11/26 09:27:03;;;;;;;15.57;4.07;;;15.00;64.80;;;;;;4184873;28;20056;-71
2021/11/26 09:29:08;;;;;;;14.18;3.53;;;15.10;66.10;;;;;;4187824;28;20120;-71
2021/11/26 09:31:11;;;;;;;16.00;4.03;;;15.10;65.60;;;;;;4186968;28;20052;-73
2021/11/26 09:33:15;;;;;;;17.33;3.30;;;15.20;65.50;;;;;;4187504;28;20140;-71
2021/11/26 09:35:21;;;;;;;21.48;3.72;;;15.30;65.00;;;;;;4185608;28;20060;-67
2021/11/26 09:37:25;;;;;;;15.57;4.07;;;15.30;65.10;;;;;;4183951;28;20076;-75
2021/11/26 09:39:29;;;;;;;13.60;3.63;;;15.40;64.50;;;;;;4176591;28;20052;-75
2021/11/26 09:41:32;;;;;;;15.98;3.47;;;15.50;64.60;;;;;;4185816;28;20049;-74
2021/11/26 09:43:36;;;;;;;13.60;3.90;;;15.50;64.50;;;;;;4187672;28;20228;-73
2021/11/26 09:45:47;;;;;;;13.50;3.53;;;15.60;64.30;;;;;;4186425;28;20048;-74
2021/11/26 09:47:53;;;;;;;13.90;3.30;;;15.60;63.80;;;;;;4183804;28;20123;-72
2021/11/26 09:49:56;;;;;;;11.10;3.55;;;15.70;64.10;;;;;;4187922;28;20352;-75
2021/11/26 09:52:00;;;;;;;13.27;3.42;;;15.70;63.80;;;;;;4180717;28;20076;-72
2021/11/26 09:54:04;;;;;;;12.40;2.90;;;15.70;64.20;;;;;;4183627;28;20099;-72
2021/11/26 09:56:10;;;;;;;15.93;3.30;;;15.80;63.90;;;;;;4184403;28;20329;-72
2021/11/26 09:58:15;;;;;;;14.15;3.03;;;15.80;63.80;;;;;;4187260;28;20045;-70
2021/11/26 10:00:19;;;;;;;17.20;3.40;;;15.80;64.40;;;;;;4187775;28;20072;-71
2021/11/26 10:02:23;;;;;;;13.90;3.13;;;15.80;63.90;;;;;;4185986;28;20110;-65
2021/11/26 10:04:26;;;;;;;12.20;3.58;;;15.80;63.90;;;;;;4187373;28;20060;-70
2021/11/26 10:06:40;;;;;;;11.90;3.50;;;15.90;64.10;;;;;;4186087;28;20067;-69
2021/11/26 10:08:53;;;;;;;10.75;3.67;;;15.90;63.60;;;;;;4176252;28;20052;-71
2021/11/26 10:11:01;;;;;;;13.50;3.25;;;15.90;63.60;;;;;;4186972;28;20057;-69
2021/11/26 10:13:07;;;;;;;11.50;3.00;;;15.90;63.30;;;;;;4184771;28;20056;-70
2021/11/26 10:15:10;;;;;;;7.55;2.33;;;16.00;63.40;;;;;;4184679;28;20111;-69
2021/11/26 10:17:16;;;;;;;8.77;2.45;;;16.00;63.20;;;;;;4182785;28;20064;-67
2021/11/26 10:19:32;;;;;;;9.30;2.75;;;16.00;63.20;;;;;;4186957;28;20265;-72
2021/11/26 10:21:36;;;;;;;10.65;2.92;;;16.10;63.10;;;;;;4186709;28;20049;-70
2021/11/26 10:23:44;;;;;;;11.48;2.75;;;16.10;63.00;;;;;;4184916;28;20052;-72
2021/11/26 10:25:49;;;;;;;5.47;2.08;;;16.10;62.70;;;;;;4187410;28;20095;-68
2021/11/26 10:27:56;;;;;;;13.20;2.72;;;16.10;62.90;;;;;;4186012;28;20083;-67
2021/11/26 10:30:10;;;;;;;11.68;2.97;;;16.10;62.60;;;;;;4185821;28;20053;-70
2021/11/26 10:32:17;;;;;;;11.82;3.33;;;16.10;62.60;;;;;;4184807;28;20135;-66
2021/11/26 10:34:27;;;;;;;13.30;3.45;;;16.10;62.00;;;;;;4187112;28;20045;-73
2021/11/26 10:36:43;;;;;;;49.67;4.85;;;16.20;63.90;;;;;;4186515;28;20336;-68
2021/11/26 10:38:48;;;;;;;24.70;3.60;;;16.30;63.00;;;;;;4174058;28;20136;-68
2021/11/26 10:40:58;;;;;;;28.38;3.22;;;16.70;61.60;;;;;;4185570;28;20045;-68
2021/11/26 10:43:14;;;;;;;12.63;2.85;;;17.00;60.60;;;;;;4182489;28;20059;-68
2021/11/26 10:45:30;;;;;;;13.73;3.15;;;17.40;59.70;;;;;;4179678;28;20171;-69